Time;durP1;ratioP1;P1;durP2;ratioP2;P2;SDS_P1;SDS_P2;PMS_P1;PMS_P2;Temp;Humidity;BMP_temperature;BMP_pressure;BME280_temperature;BME280_humidity;BME280_pressure;Samples;Min_cycle;Max_cycle;Signal;HPM_P1;HPM_P2
2023/03/09 08:51:35;;;;;;;;;16.75;15.00;;;;;;;;5187040;27;13328;-81
2023/03/09 08:54:00;;;;;;;;;16.00;14.00;;;;;;;;5190704;27;11486;-81
2023/03/09 22:29:55;;;;;;;;;7.25;7.00;;;;;;;;5102766;27;14220;-74
2023/03/09 22:32:20;;;;;;;;;7.80;7.00;;;;;;;;5092680;28;14485;-75
2023/03/09 22:34:49;;;;;;;;;9.75;5.25;;;;;;;;5095711;28;8814;-75
2023/03/09 22:37:14;;;;;;;;;7.40;7.40;;;;;;;;5094489;28;14140;-75
2023/03/09 22:39:39;;;;;;;;;5.00;5.00;;;;;;;;5094174;28;13450;-76
2023/03/09 22:42:05;;;;;;;;;10.50;8.00;;;;;;;;5082049;28;13680;-76
2023/03/09 22:44:30;;;;;;;;;10.00;5.75;;;;;;;;5000662;28;14370;-76
2023/03/09 22:46:55;;;;;;;;;13.00;9.67;;;;;;;;5033809;28;13501;-76
2023/03/09 22:49:20;;;;;;;;;9.33;8.00;;;;;;;;5023168;28;13652;-76
2023/03/09 22:51:46;;;;;;;;;5.00;1.00;;;;;;;;5034853;28;11509;-76
2023/03/09 22:54:11;;;;;;;;;8.25;6.00;;;;;;;;5029214;28;8828;-76
2023/03/09 22:56:36;;;;;;;;;6.00;4.75;;;;;;;;5032903;28;8834;-76
2023/03/09 22:59:02;;;;;;;;;11.75;8.75;;;;;;;;5034803;28;14255;-76
2023/03/09 23:01:28;;;;;;;;;7.50;6.50;;;;;;;;5041942;28;13602;-82
2023/03/09 23:03:56;;;;;;;;;6.25;6.25;;;;;;;;5045369;28;8909;-79
2023/03/09 23:06:23;;;;;;;;;12.50;11.50;;;;;;;;5041945;28;13472;-80
2023/03/09 23:08:48;;;;;;;;;12.20;11.00;;;;;;;;5041613;28;13517;-79
2023/03/09 23:11:13;;;;;;;;;;;;;;;;;;5048260;28;8774;-79
2023/03/09 23:13:38;;;;;;;;;8.20;5.40;;;;;;;;5045811;28;8773;-80
2023/03/09 23:16:04;;;;;;;;;9.50;5.00;;;;;;;;5042193;28;13424;-80
2023/03/09 23:18:29;;;;;;;;;9.75;6.50;;;;;;;;5045572;28;8928;-80
2023/03/09 23:20:54;;;;;;;;;18.33;12.00;;;;;;;;5041868;28;13441;-80
2023/03/09 23:23:20;;;;;;;;;5.00;5.00;;;;;;;;5045375;28;11545;-80
2023/03/09 23:25:45;;;;;;;;;9.00;6.00;;;;;;;;5045627;28;8777;-79
2023/03/09 23:28:10;;;;;;;;;7.25;5.00;;;;;;;;5045390;28;8833;-80
2023/03/09 23:30:35;;;;;;;;;;;;;;;;;;5047915;28;8811;-80
2023/03/09 23:33:00;;;;;;;;;6.80;4.60;;;;;;;;5045403;28;8832;-81
2023/03/09 23:35:26;;;;;;;;;;;;;;;;;;5047810;28;8789;-80
2023/03/09 23:37:51;;;;;;;;;13.00;12.00;;;;;;;;5045188;28;8785;-80
2023/03/09 23:40:16;;;;;;;;;;;;;;;;;;5039640;28;9527;-80
2023/03/09 23:42:41;;;;;;;;;9.00;8.20;;;;;;;;5031891;28;8833;-82
2023/03/09 23:45:07;;;;;;;;;5.75;4.75;;;;;;;;5031900;28;8832;-80
2023/03/09 23:47:32;;;;;;;;;7.00;4.75;;;;;;;;5031667;28;8801;-80
2023/03/09 23:49:57;;;;;;;;;7.00;7.00;;;;;;;;5028435;28;13445;-81
2023/03/09 23:52:22;;;;;;;;;;;;;;;;;;5033742;28;8855;-78
2023/03/09 23:54:48;;;;;;;;;4.60;3.60;;;;;;;;5031505;28;8797;-74
2023/03/09 23:57:13;;;;;;;;;4.00;4.00;;;;;;;;5031583;28;8839;-74
2023/03/09 23:59:38;;;;;;;;;7.00;4.75;;;;;;;;5031403;28;8801;-75
